Time;durP1;ratioP1;P1;durP2;ratioP2;P2;SDS_P1;SDS_P2;PMS_P1;PMS_P2;Temp;Humidity;BMP_temperature;BMP_pressure;BME280_temperature;BME280_humidity;BME280_pressure;Samples;Min_cycle;Max_cycle;Signal;HPM_P1;HPM_P2
2023/04/14 00:00:23;;;;;;;22.15;9.02;;;;;;;5.22;80.90;100681.84;5018970;28;21479;-71
2023/04/14 00:02:49;;;;;;;22.48;8.85;;;;;;;5.21;81.08;100678.31;5019512;28;20026;-70
2023/04/14 00:05:15;;;;;;;23.40;9.43;;;;;;;5.21;81.03;100683.66;5009634;28;20502;-71
2023/04/14 00:07:40;;;;;;;23.52;8.90;;;;;;;5.19;81.04;100676.66;5021982;28;20042;-71
2023/04/14 00:10:06;;;;;;;24.40;9.70;;;;;;;5.19;81.23;100682.00;5021853;28;20102;-70
2023/04/14 00:12:31;;;;;;;20.65;8.50;;;;;;;5.18;80.77;100677.59;5024878;28;20411;-70
2023/04/14 00:14:56;;;;;;;25.70;9.30;;;;;;;5.15;81.06;100673.28;5020595;28;20029;-71
2023/04/14 00:17:22;;;;;;;20.98;8.27;;;;;;;5.13;80.61;100671.69;5020704;28;20514;-71
2023/04/14 00:19:47;;;;;;;24.52;8.68;;;;;;;5.11;81.97;100669.09;5020063;28;20030;-71
2023/04/14 00:22:12;;;;;;;26.20;9.25;;;;;;;5.07;81.70;100672.88;5020836;28;20113;-70
2023/04/14 00:24:42;;;;;;;24.90;8.95;;;;;;;5.03;81.66;100680.13;5016653;28;20110;-71
2023/04/14 00:27:08;;;;;;;25.77;10.00;;;;;;;4.98;82.26;100676.00;5015636;28;20031;-70
2023/04/14 00:29:33;;;;;;;24.02;9.50;;;;;;;4.93;81.94;100689.56;5023668;28;20028;-71
2023/04/14 00:31:59;;;;;;;24.58;10.00;;;;;;;4.87;81.41;100695.22;5013764;28;20033;-70
2023/04/14 00:34:24;;;;;;;23.10;9.88;;;;;;;4.81;82.28;100685.72;5021178;28;20025;-71
2023/04/14 00:36:49;;;;;;;22.80;10.15;;;;;;;4.75;81.73;100688.72;5016894;28;20018;-70
2023/04/14 00:39:15;;;;;;;23.50;10.18;;;;;;;4.68;83.65;100687.31;5021485;28;20041;-70
2023/04/14 00:41:42;;;;;;;23.75;10.77;;;;;;;4.64;83.01;100686.63;5011347;28;20065;-70
2023/04/14 00:44:07;;;;;;;32.33;12.27;;;;;;;4.58;83.81;100686.06;5012443;28;20030;-70
2023/04/14 00:46:32;;;;;;;28.88;11.35;;;;;;;4.51;82.89;100689.03;5019509;28;20061;-71
2023/04/14 00:48:58;;;;;;;24.70;10.98;;;;;;;4.43;83.98;100685.91;5020315;28;20107;-70
2023/04/14 00:51:24;;;;;;;24.63;11.10;;;;;;;4.38;84.46;100691.44;5020540;28;20040;-70
2023/04/14 00:53:50;;;;;;;28.60;10.90;;;;;;;4.33;85.43;100692.63;5023127;28;20025;-70
2023/04/14 00:56:16;;;;;;;24.15;11.05;;;;;;;4.24;85.53;100691.28;5022037;28;20108;-70
2023/04/14 00:58:41;;;;;;;26.83;11.50;;;;;;;4.19;85.60;100696.81;5019901;28;20192;-70
2023/04/14 01:01:07;;;;;;;25.08;11.15;;;;;;;4.13;85.63;100693.59;5025253;28;20018;-71
2023/04/14 01:03:34;;;;;;;23.35;9.55;;;;;;;4.05;85.50;100690.47;5018380;28;20034;-70
2023/04/14 01:06:00;;;;;;;22.25;9.93;;;;;;;4.02;85.99;100699.44;5013992;28;20087;-70
2023/04/14 01:08:26;;;;;;;22.85;8.52;;;;;;;4.01;86.83;100697.72;5019522;28;20087;-71
2023/04/14 01:11:09;;;;;;;19.88;8.07;;;;;;;4.03;86.78;100706.50;5018820;28;20049;-70
2023/04/14 01:14:05;;;;;;;20.83;7.45;;;;;;;4.01;86.98;100714.56;5020039;28;20033;-70
2023/04/14 01:16:33;;;;;;;19.73;7.25;;;;;;;3.92;87.59;100709.66;5015708;28;20109;-70
2023/04/14 01:19:26;;;;;;;21.23;6.68;;;;;;;3.90;87.12;100710.69;5018109;28;20029;-70
2023/04/14 01:21:56;;;;;;;19.20;6.07;;;;;;;3.87;87.42;100709.03;5021356;28;20084;-70
2023/04/14 01:25:02;;;;;;;19.60;6.03;;;;;;;3.92;87.39;100708.81;5011426;28;20037;-70
2023/04/14 01:27:43;;;;;;;22.73;6.45;;;;;;;3.87;87.05;100702.84;5010836;28;20068;-70
2023/04/14 01:30:34;;;;;;;18.40;6.57;;;;;;;3.87;88.12;100710.84;5016508;28;20390;-70
2023/04/14 01:33:04;;;;;;;21.58;6.53;;;;;;;3.79;87.37;100704.06;5018870;28;20052;-70
2023/04/14 01:35:35;;;;;;;;;;;;;;;3.89;86.24;100708.94;5020800;28;20029;-70
2023/04/14 01:38:06;;;;;;;19.35;5.57;;;;;;;3.71;87.15;100711.53;5021190;28;20325;-70
2023/04/14 01:40:33;;;;;;;18.77;5.20;;;;;;;3.65;87.83;100717.16;5018463;28;20033;-70
2023/04/14 01:43:04;;;;;;;15.15;4.60;;;;;;;3.63;88.54;100714.56;5018428;28;20036;-70
2023/04/14 01:45:40;;;;;;;17.70;5.95;;;;;;;3.61;88.89;100720.88;5004712;28;20029;-70
2023/04/14 01:48:07;;;;;;;17.48;5.82;;;;;;;3.58;88.95;100713.06;5016278;28;20090;-70
2023/04/14 01:50:34;;;;;;;19.15;6.18;;;;;;;3.57;89.14;100720.13;5019961;28;20253;-70
2023/04/14 01:53:03;;;;;;;18.70;5.68;;;;;;;3.61;89.63;100726.19;5014685;28;20116;-70
2023/04/14 01:55:30;;;;;;;16.83;5.95;;;;;;;3.60;88.96;100719.16;5017411;28;20279;-70
2023/04/14 01:57:57;;;;;;;25.20;6.68;;;;;;;3.65;89.52;100722.47;5018522;28;20464;-70
2023/04/14 02:00:23;;;;;;;19.02;5.40;;;;;;;3.66;89.80;100721.50;5018665;28;20116;-70
2023/04/14 02:02:51;;;;;;;17.25;5.53;;;;;;;3.72;89.67;100718.59;5018645;28;20025;-70
2023/04/14 02:05:18;;;;;;;20.33;5.35;;;;;;;3.71;89.53;100722.16;5011955;28;20057;-70
2023/04/14 02:07:46;;;;;;;17.15;5.72;;;;;;;3.73;89.46;100725.59;5009251;28;20551;-70
2023/04/14 02:10:13;;;;;;;19.73;6.05;;;;;;;3.70;89.05;100725.75;5017453;28;20026;-70
2023/04/14 02:12:40;;;;;;;18.48;5.88;;;;;;;3.67;90.15;100720.59;5017128;28;20470;-70
2023/04/14 02:15:12;;;;;;;20.52;5.60;;;;;;;3.64;89.52;100724.25;5016319;28;20033;-70
2023/04/14 02:17:39;;;;;;;15.68;5.20;;;;;;;3.63;89.70;100724.31;5017641;28;20364;-70
2023/04/14 02:20:07;;;;;;;14.13;4.65;;;;;;;3.63;89.17;100725.19;5013153;28;20056;-70
2023/04/14 02:22:32;;;;;;;19.00;4.40;;;;;;;3.65;90.25;100730.44;5019695;28;20036;-70
2023/04/14 02:24:58;;;;;;;15.65;4.50;;;;;;;3.68;90.59;100732.94;5020667;28;20026;-70
2023/04/14 02:27:34;;;;;;;19.20;6.05;;;;;;;3.71;90.25;100731.94;5021482;28;20037;-70
2023/04/14 02:30:08;;;;;;;18.88;4.90;;;;;;;3.72;90.42;100737.19;5020632;28;20463;-70
2023/04/14 02:32:39;;;;;;;18.58;5.70;;;;;;;3.72;90.67;100734.53;5023316;28;20060;-70
2023/04/14 02:35:18;;;;;;;17.55;5.20;;;;;;;3.72;90.06;100728.34;5016803;28;20639;-70
2023/04/14 02:37:47;;;;;;;16.08;5.28;;;;;;;3.69;90.35;100729.38;5018393;28;20484;-70
2023/04/14 02:40:19;;;;;;;18.25;5.47;;;;;;;3.64;90.24;100734.88;5018908;28;20041;-71
2023/04/14 02:42:47;;;;;;;15.75;4.60;;;;;;;3.68;91.31;100739.13;5018416;28;20392;-71
2023/04/14 02:45:20;;;;;;;18.05;4.55;;;;;;;3.66;91.00;100740.13;5020158;28;20457;-71
2023/04/14 02:47:48;;;;;;;19.27;4.70;;;;;;;3.66;91.37;100745.44;5018043;28;20034;-70
2023/04/14 02:50:17;;;;;;;15.48;4.53;;;;;;;3.72;90.96;100749.59;5018194;28;20018;-70
2023/04/14 02:52:46;;;;;;;18.08;4.90;;;;;;;3.72;91.31;100747.84;5017812;28;20499;-70
2023/04/14 02:55:12;;;;;;;18.35;4.55;;;;;;;3.75;90.88;100745.03;5017694;28;20040;-70
2023/04/14 02:57:38;;;;;;;14.70;4.30;;;;;;;3.76;90.76;100738.75;5019535;28;20473;-70
2023/04/14 03:00:05;;;;;;;18.63;4.50;;;;;;;3.77;90.83;100740.50;5020283;28;20029;-71
2023/04/14 03:02:30;;;;;;;19.20;5.00;;;;;;;3.79;90.60;100740.41;5022343;28;20052;-70
2023/04/14 03:04:56;;;;;;;18.90;5.22;;;;;;;3.74;90.72;100753.06;5019693;28;20022;-70
2023/04/14 03:07:23;;;;;;;16.85;4.72;;;;;;;3.71;90.36;100751.41;5016215;28;20119;-71
2023/04/14 03:09:50;;;;;;;16.92;5.15;;;;;;;3.67;90.86;100750.72;5012979;28;20061;-70
2023/04/14 03:12:16;;;;;;;18.20;5.30;;;;;;;3.67;91.33;100749.81;5021441;28;20057;-70
2023/04/14 03:14:43;;;;;;;17.80;5.25;;;;;;;3.67;91.13;100755.13;5023402;28;20042;-70
2023/04/14 03:17:10;;;;;;;14.23;4.45;;;;;;;3.65;91.22;100751.69;5025355;28;20037;-70
2023/04/14 03:19:39;;;;;;;15.13;4.57;;;;;;;3.60;91.11;100751.91;5025008;28;20086;-70
2023/04/14 03:22:06;;;;;;;15.60;4.03;;;;;;;3.61;91.20;100748.31;5008112;28;20036;-71
2023/04/14 03:24:33;;;;;;;20.17;5.18;;;;;;;3.59;92.17;100750.19;5020210;28;20029;-70
2023/04/14 03:27:05;;;;;;;18.83;5.85;;;;;;;3.60;92.15;100749.25;5026280;28;20077;-70
2023/04/14 03:29:39;;;;;;;22.88;6.72;;;;;;;3.59;92.55;100744.88;5021794;28;20386;-70
2023/04/14 03:32:06;;;;;;;18.77;5.90;;;;;;;3.60;92.43;100746.59;5023857;28;20026;-70
2023/04/14 03:34:34;;;;;;;18.10;5.63;;;;;;;3.65;92.80;100757.03;5024668;28;20025;-70
2023/04/14 03:37:03;;;;;;;18.05;5.18;;;;;;;3.65;92.17;100755.22;5020613;28;20026;-71
2023/04/14 03:39:33;;;;;;;18.83;4.90;;;;;;;3.70;92.45;100759.47;5023514;28;20030;-70
2023/04/14 03:42:00;;;;;;;17.60;5.28;;;;;;;3.69;92.13;100761.25;5027143;28;20028;-70
2023/04/14 03:44:31;;;;;;;14.45;4.45;;;;;;;3.66;92.23;100750.75;5019950;28;20060;-71
2023/04/14 03:47:01;;;;;;;16.15;4.90;;;;;;;3.64;92.02;100752.63;5019315;28;20026;-70
2023/04/14 03:49:26;;;;;;;18.77;4.85;;;;;;;3.65;91.99;100751.69;5023266;28;20033;-71
2023/04/14 03:51:54;;;;;;;16.00;5.00;;;;;;;3.67;92.28;100760.44;5013853;28;20124;-70
2023/04/14 03:54:22;;;;;;;19.35;5.00;;;;;;;3.68;92.73;100751.56;5020366;28;20029;-71
2023/04/14 03:56:50;;;;;;;17.95;5.18;;;;;;;3.68;92.56;100748.91;5019249;28;20022;-70
2023/04/14 03:59:18;;;;;;;19.58;4.90;;;;;;;3.69;92.37;100758.59;5013491;28;20184;-70
2023/04/14 04:01:45;;;;;;;15.75;4.88;;;;;;;3.70;92.46;100767.44;5021339;28;20124;-70
2023/04/14 04:04:11;;;;;;;15.80;4.07;;;;;;;3.71;92.31;100763.84;5017068;28;20100;-70
2023/04/14 04:06:39;;;;;;;19.60;4.85;;;;;;;3.66;92.50;100762.25;5020979;28;21006;-70
2023/04/14 04:09:05;;;;;;;17.15;5.03;;;;;;;3.65;92.89;100765.00;5019282;28;20496;-70
2023/04/14 04:11:32;;;;;;;18.63;5.50;;;;;;;3.66;93.17;100777.31;5019399;28;20029;-70
2023/04/14 04:13:59;;;;;;;13.98;4.32;;;;;;;3.67;93.04;100765.78;5023838;28;20033;-70
2023/04/14 04:16:26;;;;;;;21.85;5.57;;;;;;;3.71;92.83;100767.34;5020905;28;20032;-71
2023/04/14 04:18:52;;;;;;;15.82;5.32;;;;;;;3.71;92.80;100759.38;5021667;28;20030;-70
2023/04/14 04:21:18;;;;;;;15.70;4.95;;;;;;;3.71;92.59;100764.69;5020535;28;20096;-70
2023/04/14 04:23:50;;;;;;;20.23;4.82;;;;;;;3.72;93.19;100766.44;5019410;28;20077;-70
2023/04/14 04:26:17;;;;;;;16.35;4.68;;;;;;;3.73;93.18;100764.63;5020958;28;20124;-70
2023/04/14 04:28:43;;;;;;;16.08;5.25;;;;;;;3.73;93.21;100768.13;5020481;28;20501;-70
2023/04/14 04:31:09;;;;;;;18.95;4.90;;;;;;;3.74;92.96;100764.56;5014853;28;20117;-70
2023/04/14 04:33:36;;;;;;;16.98;4.80;;;;;;;3.77;92.74;100771.53;5017686;28;20025;-70
2023/04/14 04:36:04;;;;;;;19.52;5.57;;;;;;;3.78;92.53;100776.78;5014410;28;20446;-70
2023/04/14 04:38:29;;;;;;;14.18;4.57;;;;;;;3.79;92.50;100767.88;5021489;28;20404;-70
2023/04/14 04:40:54;;;;;;;16.63;4.63;;;;;;;3.81;92.46;100775.78;5015166;28;20030;-71
2023/04/14 04:43:20;;;;;;;15.88;4.43;;;;;;;3.81;92.54;100775.78;5015923;28;20083;-70
2023/04/14 04:45:57;;;;;;;14.55;4.72;;;;;;;3.85;92.51;100767.59;5008214;28;20063;-71
2023/04/14 04:48:23;;;;;;;20.15;4.95;;;;;;;3.87;92.52;100774.63;5016874;28;20033;-71
2023/04/14 04:50:48;;;;;;;16.20;5.00;;;;;;;3.88;92.34;100771.91;5019707;28;20488;-70
2023/04/14 04:53:13;;;;;;;15.45;4.70;;;;;;;3.87;91.96;100772.84;5018217;28;20147;-71
2023/04/14 04:55:40;;;;;;;20.27;5.47;;;;;;;3.83;91.99;100774.75;5019023;28;20104;-70
2023/04/14 04:58:06;;;;;;;19.58;5.55;;;;;;;3.82;92.16;100786.34;5024807;28;20504;-71
2023/04/14 05:00:31;;;;;;;16.45;5.03;;;;;;;3.77;91.85;100784.81;5016701;28;20021;-70
2023/04/14 05:02:56;;;;;;;13.18;4.15;;;;;;;3.68;91.45;100776.31;5015925;28;20033;-71
2023/04/14 05:05:22;;;;;;;22.67;5.72;;;;;;;3.64;92.10;100772.06;5019936;28;20544;-71
2023/04/14 05:07:47;;;;;;;15.68;5.05;;;;;;;3.60;92.28;100772.28;5020607;28;20371;-70
2023/04/14 05:10:12;;;;;;;18.67;5.03;;;;;;;3.53;91.81;100777.03;5018548;28;20022;-70
2023/04/14 05:12:38;;;;;;;21.25;5.68;;;;;;;3.53;92.98;100774.38;5010834;28;20038;-71
2023/04/14 05:15:03;;;;;;;21.83;5.30;;;;;;;3.52;93.41;100772.66;5016937;28;20068;-71
2023/04/14 05:17:29;;;;;;;21.17;5.80;;;;;;;3.53;93.71;100771.72;5013887;28;20029;-70
2023/04/14 05:19:54;;;;;;;18.48;5.32;;;;;;;3.56;94.38;100765.38;5012727;28;20458;-70
2023/04/14 05:22:19;;;;;;;20.88;4.40;;;;;;;3.62;94.53;100773.97;5021874;28;20029;-70
2023/04/14 05:24:49;;;;;;;15.30;4.43;;;;;;;3.69;94.93;100774.56;5016473;28;20068;-70
2023/04/14 05:27:14;;;;;;;14.05;4.55;;;;;;;3.75;95.03;100774.25;5009076;28;20497;-71
2023/04/14 05:29:40;;;;;;;17.95;5.32;;;;;;;3.80;95.03;100764.25;5011920;28;20018;-71
2023/04/14 05:32:05;;;;;;;18.48;5.38;;;;;;;3.89;94.52;100762.13;5019793;28;20026;-70
2023/04/14 05:34:30;;;;;;;21.95;6.15;;;;;;;3.95;94.61;100772.47;5015578;28;20128;-70
2023/04/14 05:36:55;;;;;;;19.52;5.82;;;;;;;4.03;94.60;100765.84;5021978;28;20029;-71
2023/04/14 05:39:21;;;;;;;15.95;4.90;;;;;;;4.13;94.83;100766.28;5019053;28;20449;-71
2023/04/14 05:41:46;;;;;;;24.13;5.90;;;;;;;4.20;94.25;100766.84;5012635;28;20026;-71
2023/04/14 05:44:11;;;;;;;18.77;5.85;;;;;;;4.29;94.19;100765.53;5016633;28;20029;-70
2023/04/14 05:46:36;;;;;;;21.35;4.97;;;;;;;4.38;94.08;100770.44;5015934;28;20424;-71
2023/04/14 05:49:03;;;;;;;16.85;4.88;;;;;;;4.43;93.99;100773.72;5011530;28;20033;-71
2023/04/14 05:51:29;;;;;;;14.68;4.43;;;;;;;4.50;94.04;100772.47;5015643;28;20470;-71
2023/04/14 05:53:54;;;;;;;18.70;5.25;;;;;;;4.55;93.82;100765.13;5017233;28;20044;-71
2023/04/14 05:56:19;;;;;;;21.58;5.05;;;;;;;4.60;93.10;100764.91;5009528;28;20053;-71
2023/04/14 05:58:45;;;;;;;17.15;5.38;;;;;;;4.68;93.28;100777.81;5017668;28;20072;-71
2023/04/14 06:01:10;;;;;;;19.92;4.55;;;;;;;4.72;93.16;100774.06;5009473;28;20017;-71
2023/04/14 06:03:36;;;;;;;17.73;4.45;;;;;;;4.77;93.13;100774.69;5018783;28;20032;-71
2023/04/14 06:06:01;;;;;;;17.20;4.75;;;;;;;4.83;92.56;100771.75;5013767;28;20022;-71
2023/04/14 06:08:26;;;;;;;22.95;5.35;;;;;;;4.89;92.10;100774.09;5006413;28;20129;-71
2023/04/14 06:10:52;;;;;;;18.58;5.43;;;;;;;4.95;91.54;100778.25;5016981;28;20104;-71
2023/04/14 06:13:21;;;;;;;22.42;5.90;;;;;;;4.99;92.01;100781.59;5018240;28;20134;-71
2023/04/14 06:15:48;;;;;;;17.70;5.13;;;;;;;5.00;91.86;100784.19;5012556;28;20026;-71
2023/04/14 06:18:13;;;;;;;19.10;5.63;;;;;;;5.02;91.81;100782.31;5014923;28;20032;-71
2023/04/14 06:20:38;;;;;;;17.95;4.53;;;;;;;5.07;91.20;100780.25;5017935;28;20026;-71
2023/04/14 06:23:04;;;;;;;21.52;5.20;;;;;;;5.11;91.05;100775.66;5016143;28;20128;-71
2023/04/14 06:25:29;;;;;;;18.85;4.97;;;;;;;5.20;91.72;100774.31;5017043;28;20026;-71
2023/04/14 06:27:55;;;;;;;16.73;5.25;;;;;;;5.25;90.90;100773.09;5015647;28;20117;-71
2023/04/14 06:30:21;;;;;;;19.25;5.03;;;;;;;5.33;91.14;100774.50;5016669;28;20059;-71
2023/04/14 06:32:47;;;;;;;14.88;4.80;;;;;;;5.39;90.41;100767.06;5015077;28;20049;-71
2023/04/14 06:35:13;;;;;;;26.00;5.35;;;;;;;5.43;89.99;100759.75;5011713;28;20059;-71
2023/04/14 06:37:38;;;;;;;15.65;4.00;;;;;;;5.48;90.30;100752.38;5018245;28;20057;-71
2023/04/14 06:40:04;;;;;;;17.80;5.10;;;;;;;5.53;90.26;100760.13;5022675;28;20188;-71
2023/04/14 06:42:29;;;;;;;16.65;5.22;;;;;;;5.59;89.81;100751.81;5026532;28;20065;-71
2023/04/14 06:44:54;;;;;;;22.08;5.35;;;;;;;5.66;89.88;100747.88;5015585;28;20041;-71
2023/04/14 06:47:20;;;;;;;17.45;4.25;;;;;;;5.71;89.43;100753.81;5016360;28;20033;-71
2023/04/14 06:49:46;;;;;;;22.73;5.38;;;;;;;5.78;88.89;100752.53;5014738;28;20414;-71
2023/04/14 06:52:11;;;;;;;15.57;4.55;;;;;;;5.84;88.49;100753.13;5015431;28;20041;-71
2023/04/14 06:54:36;;;;;;;13.35;3.75;;;;;;;5.88;88.74;100744.88;5020829;28;20417;-71
2023/04/14 06:57:02;;;;;;;18.27;4.60;;;;;;;5.96;88.19;100741.81;5017503;28;20042;-71
2023/04/14 06:59:28;;;;;;;16.30;4.53;;;;;;;6.04;87.71;100749.41;5007563;28;20046;-71
2023/04/14 07:01:54;;;;;;;20.40;5.55;;;;;;;6.09;87.85;100745.53;5008927;28;20052;-71
2023/04/14 07:04:19;;;;;;;13.23;3.85;;;;;;;6.19;88.11;100743.19;5009883;28;20057;-71
2023/04/14 07:06:44;;;;;;;17.05;4.35;;;;;;;6.27;86.66;100740.09;5009289;28;20564;-71
2023/04/14 07:09:10;;;;;;;16.80;4.60;;;;;;;6.34;86.72;100745.94;5009292;28;20109;-71
2023/04/14 07:11:35;;;;;;;14.98;4.40;;;;;;;6.44;87.29;100741.78;5010704;28;20053;-71
2023/04/14 07:14:00;;;;;;;17.50;5.30;;;;;;;6.49;86.25;100742.38;5005918;28;20026;-71
2023/04/14 07:16:26;;;;;;;17.60;4.63;;;;;;;6.57;86.11;100733.94;5010503;28;20045;-71
2023/04/14 07:18:51;;;;;;;15.45;3.92;;;;;;;6.63;86.05;100729.09;5023452;28;20099;-71
2023/04/14 07:21:16;;;;;;;18.23;4.45;;;;;;;6.72;84.96;100729.50;5018924;28;20508;-71
2023/04/14 07:23:42;;;;;;;15.43;4.53;;;;;;;6.78;84.41;100721.97;5021860;28;20033;-71
2023/04/14 07:26:07;;;;;;;17.88;5.18;;;;;;;6.85;84.31;100719.78;5015884;28;20401;-71
2023/04/14 07:28:32;;;;;;;19.55;4.88;;;;;;;6.94;83.91;100726.41;5014984;28;20516;-71
2023/04/14 07:30:59;;;;;;;18.10;4.05;;;;;;;7.05;83.09;100725.75;5027231;28;20037;-72
2023/04/14 07:33:25;;;;;;;16.65;3.75;;;;;;;7.14;81.95;100731.38;5024862;28;20036;-72
2023/04/14 07:35:52;;;;;;;15.77;4.18;;;;;;;7.23;81.43;100715.75;5019998;28;20453;-72
2023/04/14 07:38:18;;;;;;;13.70;3.83;;;;;;;7.28;81.08;100721.69;5023847;28;20041;-71
2023/04/14 07:40:43;;;;;;;16.48;4.05;;;;;;;7.34;80.37;100721.31;5022391;28;20382;-72
2023/04/14 07:43:08;;;;;;;13.82;3.92;;;;;;;7.41;80.29;100719.09;5015195;28;20026;-72
2023/04/14 07:45:34;;;;;;;16.42;4.10;;;;;;;7.47;79.46;100716.06;5023559;28;20073;-72
2023/04/14 07:47:59;;;;;;;13.55;3.70;;;;;;;7.52;78.20;100713.94;5023376;28;20449;-72
2023/04/14 07:50:25;;;;;;;14.77;3.80;;;;;;;7.58;78.48;100712.69;5020624;28;20129;-72
2023/04/14 07:52:50;;;;;;;14.38;3.53;;;;;;;7.61;77.33;100713.34;5009628;28;20022;-72
2023/04/14 07:55:16;;;;;;;17.17;3.42;;;;;;;7.68;78.48;100714.69;5015249;28;20473;-72
2023/04/14 07:57:41;;;;;;;11.90;3.25;;;;;;;7.78;78.14;100703.41;5020015;28;20101;-71
2023/04/14 08:00:08;;;;;;;12.30;3.63;;;;;;;7.87;77.94;100717.06;5018649;28;20030;-72
2023/04/14 08:02:34;;;;;;;14.13;3.90;;;;;;;7.97;76.00;100720.00;5018165;28;21573;-72
2023/04/14 08:04:59;;;;;;;13.52;3.00;;;;;;;8.03;75.42;100719.59;5020043;28;20037;-72
2023/04/14 08:07:27;;;;;;;13.68;3.10;;;;;;;8.13;74.78;100713.66;4982013;28;1122951;-72
2023/04/14 08:09:53;;;;;;;13.45;3.60;;;;;;;8.20;73.99;100713.16;5022870;28;20412;-72
2023/04/14 08:12:18;;;;;;;7.97;2.75;;;;;;;8.29;71.61;100710.84;5023236;28;20026;-72
2023/04/14 08:14:43;;;;;;;14.80;3.10;;;;;;;8.38;73.50;100710.22;5021567;28;20037;-72
2023/04/14 08:17:09;;;;;;;12.20;3.35;;;;;;;8.47;73.37;100709.63;5019694;28;20032;-72
2023/04/14 08:19:35;;;;;;;10.80;3.05;;;;;;;8.55;71.91;100711.78;5020939;28;20526;-72
2023/04/14 08:22:01;;;;;;;11.25;3.00;;;;;;;8.62;72.59;100710.41;5024295;28;20049;-72
2023/04/14 08:24:26;;;;;;;11.35;2.78;;;;;;;8.67;72.29;100716.34;5023381;28;20568;-72
2023/04/14 08:26:51;;;;;;;10.93;3.17;;;;;;;8.73;70.37;100707.03;5022203;28;20037;-71
2023/04/14 08:29:17;;;;;;;9.80;2.80;;;;;;;8.80;71.81;100710.13;5020692;28;20105;-72
2023/04/14 08:31:42;;;;;;;9.80;2.67;;;;;;;8.85;69.29;100708.88;5020745;28;20077;-72
2023/04/14 08:34:07;;;;;;;11.50;2.50;;;;;;;8.92;69.41;100715.53;5023264;28;20096;-72
2023/04/14 08:36:32;;;;;;;11.93;2.67;;;;;;;8.99;70.74;100707.94;5023798;28;20033;-72
2023/04/14 08:38:59;;;;;;;9.25;2.55;;;;;;;9.01;67.95;100707.81;5022882;28;20366;-72
2023/04/14 08:41:25;;;;;;;9.45;2.63;;;;;;;9.06;69.62;100708.34;5020597;28;20077;-72
2023/04/14 08:43:50;;;;;;;12.35;2.78;;;;;;;9.09;70.00;100709.00;5020914;28;20033;-72
2023/04/14 08:46:18;;;;;;;4.72;1.95;;;;;;;9.21;68.78;100709.09;5022805;28;20044;-72
2023/04/14 08:48:48;;;;;;;10.45;2.70;;;;;;;9.26;68.54;100707.81;5023495;28;20026;-72
2023/04/14 08:51:35;;;;;;;8.75;2.05;;;;;;;9.32;68.00;100711.91;5021881;28;20429;-72
2023/04/14 08:54:11;;;;;;;8.90;2.15;;;;;;;9.36;69.60;100707.19;5020147;28;20034;-72
2023/04/14 08:56:38;;;;;;;7.75;2.40;;;;;;;9.41;68.89;100708.59;5014366;28;20107;-72
2023/04/14 08:59:10;;;;;;;13.23;2.72;;;;;;;9.49;68.69;100707.16;5021736;28;20021;-72
2023/04/14 09:01:37;;;;;;;12.38;2.33;;;;;;;9.57;67.68;100712.84;5020292;28;20026;-72
2023/04/14 09:04:03;;;;;;;13.40;2.80;;;;;;;9.65;66.75;100712.28;5026510;28;20029;-72
2023/04/14 09:06:29;;;;;;;11.10;2.50;;;;;;;9.68;66.50;100712.06;5020142;28;20021;-72
2023/04/14 09:08:54;;;;;;;8.55;2.75;;;;;;;9.74;67.94;100704.44;5020462;28;20080;-72
2023/04/14 09:11:20;;;;;;;8.98;2.33;;;;;;;9.80;67.01;100698.63;5020203;28;20458;-72
2023/04/14 09:13:48;;;;;;;5.97;2.88;;;;;;;9.84;66.24;100701.09;5022728;28;20048;-72
2023/04/14 09:16:15;;;;;;;7.75;2.45;;;;;;;9.91;67.04;100699.66;5021974;28;20025;-72
2023/04/14 09:18:40;;;;;;;11.00;2.80;;;;;;;9.96;66.11;100694.84;5021408;28;20034;-72
2023/04/14 09:21:05;;;;;;;9.73;2.30;;;;;;;9.99;66.89;100697.28;5019679;28;20139;-72
2023/04/14 09:23:32;;;;;;;16.77;2.78;;;;;;;9.96;65.37;100690.31;5019220;28;20040;-72
2023/04/14 09:25:57;;;;;;;12.43;2.97;;;;;;;9.94;64.60;100689.59;5020283;28;20032;-72
2023/04/14 09:28:23;;;;;;;11.98;2.45;;;;;;;9.97;64.53;100689.34;5019652;28;20033;-72
2023/04/14 09:30:48;;;;;;;10.20;2.38;;;;;;;10.05;67.53;100686.09;5019038;28;20026;-72
2023/04/14 09:33:21;;;;;;;15.05;2.83;;;;;;;10.14;65.50;100687.25;5022619;28;20121;-72
2023/04/14 09:35:48;;;;;;;11.32;3.03;;;;;;;10.28;66.64;100696.97;5022492;28;20033;-72
2023/04/14 09:38:15;;;;;;;11.38;2.78;;;;;;;10.38;65.08;100692.66;5010128;28;20068;-72
2023/04/14 09:40:42;;;;;;;8.82;2.50;;;;;;;10.47;64.86;100683.06;5018059;28;20033;-72
2023/04/14 09:43:21;;;;;;;6.63;2.35;;;;;;;10.45;64.36;100676.91;5021460;28;20335;-72
2023/04/14 09:45:47;;;;;;;12.27;2.80;;;;;;;10.46;64.59;100674.13;5021420;28;20021;-72
2023/04/14 09:48:12;;;;;;;13.63;3.30;;;;;;;10.55;63.35;100672.56;5019128;28;20029;-72
2023/04/14 09:51:00;;;;;;;12.13;3.00;;;;;;;10.61;64.18;100666.72;5019381;28;20029;-72
2023/04/14 09:53:31;;;;;;;6.82;2.60;;;;;;;10.64;64.85;100671.00;5022071;28;20033;-72
2023/04/14 09:55:58;;;;;;;10.00;2.88;;;;;;;10.70;63.49;100675.91;5022523;28;20389;-72
2023/04/14 09:58:28;;;;;;;11.15;2.70;;;;;;;10.80;63.28;100665.31;5019051;28;20030;-72
2023/04/14 10:00:53;;;;;;;7.80;2.47;;;;;;;10.89;61.87;100659.19;5019395;28;20052;-72
2023/04/14 10:03:39;;;;;;;9.23;2.13;;;;;;;10.99;63.04;100667.41;5020044;28;20033;-72
2023/04/14 10:06:14;;;;;;;9.18;2.53;;;;;;;11.11;60.29;100665.59;5022693;28;20310;-72
2023/04/14 10:08:41;;;;;;;9.55;2.38;;;;;;;11.19;58.76;100660.47;5017143;28;20054;-72
2023/04/14 10:11:14;;;;;;;10.40;2.55;;;;;;;11.27;59.97;100652.63;5017458;28;20053;-72
2023/04/14 10:13:40;;;;;;;9.80;2.38;;;;;;;11.30;58.57;100651.56;5019625;28;20390;-72
2023/04/14 10:16:05;;;;;;;11.63;2.63;;;;;;;11.27;58.71;100647.25;5022368;28;20029;-72
2023/04/14 10:18:31;;;;;;;9.05;2.25;;;;;;;11.18;57.78;100646.16;5020745;28;20055;-72
2023/04/14 10:21:00;;;;;;;8.25;2.58;;;;;;;11.14;58.82;100636.66;5019215;28;20109;-72
2023/04/14 10:23:26;;;;;;;10.73;2.42;;;;;;;11.24;61.17;100636.75;5017879;28;20065;-72
2023/04/14 10:25:53;;;;;;;6.88;2.40;;;;;;;11.29;59.19;100636.38;5020615;28;20293;-72
2023/04/14 10:28:19;;;;;;;8.30;2.70;;;;;;;11.36;58.33;100640.28;5020893;28;20041;-72
2023/04/14 10:30:45;;;;;;;12.77;2.78;;;;;;;11.45;60.04;100623.44;5016081;28;20034;-72
2023/04/14 10:33:11;;;;;;;7.72;2.53;;;;;;;11.49;57.03;100630.28;5020779;28;20464;-72
2023/04/14 10:35:41;;;;;;;7.57;2.53;;;;;;;11.58;57.01;100638.56;5022201;28;20033;-72
2023/04/14 10:38:07;;;;;;;10.50;2.83;;;;;;;11.77;59.69;100625.34;5019595;28;20147;-72
2023/04/14 10:40:46;;;;;;;9.15;2.45;;;;;;;11.85;57.07;100624.69;5019016;28;20112;-72
2023/04/14 10:43:14;;;;;;;16.52;3.17;;;;;;;11.93;58.90;100626.75;5021146;28;20136;-72
2023/04/14 10:45:56;;;;;;;10.77;2.72;;;;;;;11.95;58.01;100619.41;5020794;28;20064;-72
2023/04/14 10:48:27;;;;;;;13.15;3.35;;;;;;;11.92;56.36;100631.28;5017473;28;20037;-72
2023/04/14 10:50:58;;;;;;;9.70;2.35;;;;;;;11.83;56.02;100616.75;5018679;28;20033;-72
2023/04/14 10:53:25;;;;;;;14.52;3.22;;;;;;;11.78;56.16;100613.56;5021274;28;20034;-72
2023/04/14 10:55:52;;;;;;;8.65;2.70;;;;;;;11.76;57.65;100609.28;5022010;28;20495;-72
2023/04/14 10:58:20;;;;;;;10.70;3.17;;;;;;;11.78;56.60;100618.94;5020702;28;20315;-72
2023/04/14 11:00:45;;;;;;;9.98;2.38;;;;;;;11.77;54.25;100606.50;5018957;28;20022;-72
2023/04/14 11:03:15;;;;;;;9.20;2.70;;;;;;;11.81;55.15;100610.63;5018631;28;20058;-72
2023/04/14 11:05:51;;;;;;;6.30;2.10;;;;;;;11.85;56.31;100609.38;5009374;28;20064;-72
2023/04/14 11:08:23;;;;;;;8.13;2.58;;;;;;;11.88;55.68;100609.13;5017147;28;20116;-72
2023/04/14 11:10:52;;;;;;;9.43;2.50;;;;;;;12.00;57.21;100604.59;5014269;28;20017;-72
2023/04/14 11:13:18;;;;;;;6.25;2.42;;;;;;;12.15;56.41;100599.78;5015746;28;20033;-72
2023/04/14 11:15:48;;;;;;;15.07;2.80;;;;;;;12.22;55.27;100603.66;5024154;28;20509;-72
2023/04/14 11:18:19;;;;;;;11.38;2.78;;;;;;;12.24;51.69;100600.84;5021364;28;20116;-72
2023/04/14 11:20:44;;;;;;;8.13;2.38;;;;;;;12.33;54.98;100583.00;5020019;28;20385;-72
2023/04/14 11:23:15;;;;;;;12.02;2.60;;;;;;;12.41;53.83;100594.00;5020747;28;20017;-72
2023/04/14 11:25:40;;;;;;;9.20;2.47;;;;;;;12.43;54.13;100592.06;5026079;28;20029;-72